Time;durP1;ratioP1;P1;durP2;ratioP2;P2;SDS_P1;SDS_P2;PMS_P1;PMS_P2;Temp;Humidity;BMP_temperature;BMP_pressure;BME280_temperature;BME280_humidity;BME280_pressure;Samples;Min_cycle;Max_cycle;Signal;HPM_P1;HPM_P2
2022/08/24 00:01:37;;;;;;;;;;;;;;;-142.75;100.00;76351.81;5015143;28;20398;-67
2022/08/24 00:04:02;;;;;;;;;;;;;;;-142.75;100.00;76351.81;5015288;28;19918;-67
2022/08/24 00:06:28;;;;;;;;;;;;;;;-142.75;100.00;76349.81;5015213;28;19980;-67
2022/08/24 00:08:54;;;;;;;;;;;;;;;-142.75;100.00;76357.69;5015138;28;19913;-67
2022/08/24 00:11:19;;;;;;;;;;;;;;;-142.75;100.00;76357.69;5015341;28;19943;-67
2022/08/24 00:13:45;;;;;;;;;;;;;;;-142.75;100.00;76357.69;4997694;28;19959;-67
2022/08/24 00:16:11;;;;;;;;;;;;;;;-142.75;100.00;76371.47;5015288;28;19921;-67
2022/08/24 00:18:37;;;;;;;;;;;;;;;-142.75;100.00;76373.44;5014708;28;19950;-67
2022/08/24 00:21:02;;;;;;;;;;;;;;;-142.75;100.00;76381.31;5015028;28;19921;-67
2022/08/24 00:23:28;;;;;;;;;;;;;;;-142.75;100.00;76381.31;5014989;28;19924;-67
2022/08/24 00:25:54;;;;;;;;;;;;;;;-142.75;100.00;76385.25;5015268;28;19920;-67
2022/08/24 00:28:19;;;;;;;;;;;;;;;-142.75;100.00;76395.09;5015146;28;19960;-67
2022/08/24 00:30:44;;;;;;;;;;;;;;;-142.75;100.00;76395.09;4997401;28;19913;-67
2022/08/24 00:33:09;;;;;;;;;;;;;;;-142.75;100.00;76406.91;5014426;28;20526;-67
2022/08/24 00:35:35;;;;;;;;;;;;;;;-142.75;100.00;76402.97;5015135;28;19918;-67
2022/08/24 00:38:00;;;;;;;;;;;;;;;-142.75;100.00;76412.81;5014558;28;19917;-67
2022/08/24 00:40:28;;;;;;;;;;;;;;;-142.75;100.00;76402.97;4997085;28;19959;-67
2022/08/24 00:42:55;;;;;;;;;;;;;;;-142.75;100.00;76391.16;5014422;28;20343;-67
2022/08/24 00:45:20;;;;;;;;;;;;;;;-142.75;100.00;76393.13;5014720;28;20394;-67
2022/08/24 00:47:57;;;;;;;;;;;;;;;-142.75;100.00;76401.00;5014221;28;19914;-67
2022/08/24 00:50:31;;;;;;;;;;;;;;;-142.75;100.00;76391.16;5014641;28;19960;-67
2022/08/24 00:52:58;;;;;;;;;;;;;;;-142.75;100.00;76391.16;4996754;28;19913;-67
2022/08/24 00:55:29;;;;;;;;;;;;;;;-142.75;100.00;76397.06;5014783;28;19948;-67
2022/08/24 00:57:58;;;;;;;;;;;;;;;-142.75;100.00;76401.00;5014365;28;20306;-67
2022/08/24 01:02:53;;;;;;;;;;;;;;;-142.75;100.00;76395.09;5048357;28;19928;-66
2022/08/24 01:05:18;;;;;;;;;;;;;;;-142.75;100.00;76397.06;5050317;28;19917;-66
2022/08/24 01:07:44;;;;;;;;;;;;;;;-142.75;100.00;76397.06;5051151;28;20019;-66
2022/08/24 01:10:10;;;;;;;;;;;;;;;-142.75;100.00;76401.00;5052734;28;19913;-67
2022/08/24 01:12:37;;;;;;;;;;;;;;;-142.75;100.00;76410.84;5052602;28;19917;-67
2022/08/24 01:15:03;;;;;;;;;;;;;;;-142.75;100.00;76385.25;5052506;28;19999;-67
2022/08/24 01:20:13;;;;;;;;;;;;;;;-142.75;100.00;76381.31;5052553;28;19919;-67
2022/08/24 01:22:44;;;;;;;;;;;;;;;-142.75;100.00;76389.19;5052374;28;20019;-66
2022/08/24 01:25:09;;;;;;;;;;;;;;;-142.75;100.00;76406.91;5052458;28;19920;-66
2022/08/24 01:27:35;;;;;;;;;;;;;;;-142.75;100.00;76412.81;5052036;28;19917;-66
2022/08/24 01:30:03;;;;;;;;;;;;;;;-142.75;100.00;76406.91;5052332;28;19995;-66
2022/08/24 01:32:29;;;;;;;;;;;;;;;-142.75;100.00;76410.84;5052181;28;20003;-66
2022/08/24 01:34:55;;;;;;;;;;;;;;;-142.75;100.00;76414.78;5052282;28;19940;-66
2022/08/24 01:37:21;;;;;;;;;;;;;;;-142.75;100.00;76401.00;5051984;28;20542;-66
2022/08/24 01:39:48;;;;;;;;;;;;;;;-142.75;100.00;76404.94;5052235;28;20043;-67
2022/08/24 01:42:13;;;;;;;;;;;;;;;-142.75;100.00;76412.81;5050742;28;19912;-67
2022/08/24 01:44:40;;;;;;;;;;;;;;;-142.75;100.00;76426.59;5051308;28;19974;-66
2022/08/24 01:47:06;;;;;;;;;;;;;;;-142.75;100.00;76410.84;5051848;28;19991;-67
2022/08/24 01:49:32;;;;;;;;;;;;;;;-142.75;100.00;76397.06;5052116;28;19912;-66
2022/08/24 01:51:58;;;;;;;;;;;;;;;-142.75;100.00;76393.13;5052063;28;19939;-66
2022/08/24 01:54:24;;;;;;;;;;;;;;;-142.75;100.00;76389.19;5051074;28;19912;-67
2022/08/24 01:56:49;;;;;;;;;;;;;;;-142.75;100.00;76375.41;5051649;28;19917;-67
2022/08/24 01:59:14;;;;;;;;;;;;;;;-142.75;100.00;76377.38;5051952;28;19913;-66
2022/08/24 02:01:43;;;;;;;;;;;;;;;-142.75;100.00;76367.53;5051768;28;19920;-67
2022/08/24 02:04:08;;;;;;;;;;;;;;;-142.75;100.00;76359.66;5051832;28;20310;-66
2022/08/24 02:06:34;;;;;;;;;;;;;;;-142.75;100.00;76345.91;5051598;28;19913;-67
2022/08/24 02:08:59;;;;;;;;;;;;;;;-142.75;100.00;76338.03;5051976;28;20310;-67
2022/08/24 02:11:25;;;;;;;;;;;;;;;-142.75;100.00;76334.09;5052250;28;20320;-67
2022/08/24 02:13:51;;;;;;;;;;;;;;;-142.75;100.00;76322.28;5051879;28;19966;-67
2022/08/24 02:16:16;;;;;;;;;;;;;;;-142.75;100.00;76322.28;5050561;28;19919;-67
2022/08/24 02:18:41;;;;;;;;;;;;;;;-142.75;100.00;76328.19;5051645;28;19920;-67
2022/08/24 02:21:08;;;;;;;;;;;;;;;-142.75;100.00;76318.34;5051715;28;20009;-67
2022/08/24 02:23:33;;;;;;;;;;;;;;;-142.75;100.00;76314.41;5051794;28;20358;-67
2022/08/24 02:25:59;;;;;;;;;;;;;;;-142.75;100.00;76320.31;5051652;28;19952;-66
2022/08/24 02:28:25;;;;;;;;;;;;;;;-142.75;100.00;76322.28;5050182;28;20345;-67
2022/08/24 02:30:50;;;;;;;;;;;;;;;-142.75;100.00;76328.19;5050558;28;19912;-67
2022/08/24 02:33:15;;;;;;;;;;;;;;;-142.75;100.00;76341.97;5050409;28;19917;-67
2022/08/24 02:35:41;;;;;;;;;;;;;;;-142.75;100.00;76332.13;5051741;28;20046;-68
2022/08/24 02:38:07;;;;;;;;;;;;;;;-142.75;100.00;76351.81;5050055;28;19912;-66
2022/08/24 02:40:32;;;;;;;;;;;;;;;-142.75;100.00;76353.78;5051550;28;19912;-67
2022/08/24 02:42:58;;;;;;;;;;;;;;;-142.75;100.00;76357.69;5051521;28;20388;-66
2022/08/24 02:45:23;;;;;;;;;;;;;;;-142.75;100.00;76365.56;5050307;28;20407;-66
2022/08/24 02:47:48;;;;;;;;;;;;;;;-142.75;100.00;76385.25;5049983;28;19912;-67
2022/08/24 02:50:14;;;;;;;;;;;;;;;-142.75;100.00;76406.91;5050299;28;19920;-66
2022/08/24 02:52:40;;;;;;;;;;;;;;;-142.75;100.00;76387.22;5051439;28;19966;-65
2022/08/24 02:55:06;;;;;;;;;;;;;;;-142.75;100.00;76393.13;5050856;28;19999;-65
2022/08/24 02:57:31;;;;;;;;;;;;;;;-142.75;100.00;76379.34;5054835;28;19917;-65
2022/08/24 02:59:57;;;;;;;;;;;;;;;-142.75;100.00;76375.41;5055171;28;19913;-65
2022/08/24 03:02:22;;;;;;;;;;;;;;;-142.75;100.00;76377.38;5054989;28;19917;-65
2022/08/24 03:04:47;;;;;;;;;;;;;;;-142.75;100.00;76367.53;5055013;28;19917;-66
2022/08/24 03:07:12;;;;;;;;;;;;;;;-142.75;100.00;76361.63;5054834;28;19913;-66
2022/08/24 03:09:37;;;;;;;;;;;;;;;-142.75;100.00;76363.59;5054911;28;19996;-66
2022/08/24 03:12:03;;;;;;;;;;;;;;;-142.75;100.00;76367.53;5054932;28;19951;-66
2022/08/24 03:14:28;;;;;;;;;;;;;;;-142.75;100.00;76363.59;5054875;28;20293;-66
2022/08/24 03:16:53;;;;;;;;;;;;;;;-142.75;100.00;76369.50;5054544;28;19975;-66
2022/08/24 03:19:19;;;;;;;;;;;;;;;-142.75;100.00;76377.38;5054778;28;19912;-66
2022/08/24 03:21:44;;;;;;;;;;;;;;;-142.75;100.00;76385.25;5053450;28;19913;-66
2022/08/24 03:24:09;;;;;;;;;;;;;;;-142.75;100.00;76381.31;5054612;28;20298;-65
2022/08/24 03:26:34;;;;;;;;;;;;;;;-142.75;100.00;76377.38;5054436;28;20003;-65
2022/08/24 03:29:00;;;;;;;;;;;;;;;-142.75;100.00;76377.38;5054611;28;20024;-66
2022/08/24 03:31:25;;;;;;;;;;;;;;;-142.75;100.00;76369.50;5054547;28;19956;-66
2022/08/24 03:33:50;;;;;;;;;;;;;;;-142.75;100.00;76375.41;5054601;28;19955;-66
2022/08/24 03:36:16;;;;;;;;;;;;;;;-142.75;100.00;76375.41;5053258;28;20370;-66
2022/08/24 03:38:41;;;;;;;;;;;;;;;-142.75;100.00;76383.28;5052904;28;19920;-66
2022/08/24 03:41:07;;;;;;;;;;;;;;;-142.75;100.00;76383.28;5054372;28;19919;-66
2022/08/24 03:43:45;;;;;;;;;;;;;;;-142.75;100.00;76389.19;5052957;28;19917;-66
2022/08/24 03:46:11;;;;;;;;;;;;;;;-142.75;100.00;76395.09;5054302;28;19995;-66
2022/08/24 03:48:37;;;;;;;;;;;;;;;-142.75;100.00;76393.13;5052776;28;20310;-66
2022/08/24 03:51:03;;;;;;;;;;;;;;;-142.75;100.00;76383.28;5054258;28;20000;-66
2022/08/24 03:53:28;;;;;;;;;;;;;;;-142.75;100.00;76395.09;5052868;28;20455;-66
2022/08/24 03:55:53;;;;;;;;;;;;;;;-142.75;100.00;76399.03;5054168;28;19919;-66
2022/08/24 03:58:18;;;;;;;;;;;;;;;-142.75;100.00;76397.06;5053840;28;19913;-66
2022/08/24 04:00:44;;;;;;;;;;;;;;;-142.75;100.00;76397.06;5053885;28;20302;-66
2022/08/24 04:03:09;;;;;;;;;;;;;;;-142.75;100.00;76399.03;5054003;28;19923;-66
2022/08/24 04:05:35;;;;;;;;;;;;;;;-142.75;100.00;76397.06;5053931;28;19952;-66
2022/08/24 04:08:01;;;;;;;;;;;;;;;-142.75;100.00;76408.88;5052813;28;19959;-66
2022/08/24 04:10:27;;;;;;;;;;;;;;;-142.75;100.00;76414.78;5053802;28;19913;-65
2022/08/24 04:12:53;;;;;;;;;;;;;;;-142.75;100.00;76416.75;5053841;28;19917;-66
2022/08/24 04:15:18;;;;;;;;;;;;;;;-142.75;100.00;76416.75;5053775;28;20393;-65
2022/08/24 04:17:43;;;;;;;;;;;;;;;-142.75;100.00;76422.66;5052233;28;19962;-66
2022/08/24 04:20:09;;;;;;;;;;;;;;;-142.75;100.00;76436.44;5052481;28;19912;-66
2022/08/24 04:22:35;;;;;;;;;;;;;;;-142.75;100.00;76446.28;5053494;28;19935;-65
2022/08/24 04:25:00;;;;;;;;;;;;;;;-142.75;100.00;76432.50;5053561;28;20003;-66
2022/08/24 04:27:25;;;;;;;;;;;;;;;-142.75;100.00;76430.53;5053226;28;19985;-66
2022/08/24 04:29:51;;;;;;;;;;;;;;;-142.75;100.00;76426.59;5053571;28;19913;-66
2022/08/24 04:32:16;;;;;;;;;;;;;;;-142.75;100.00;76438.41;5053418;28;20404;-66
2022/08/24 04:34:42;;;;;;;;;;;;;;;-142.75;100.00;76436.44;5053468;28;19913;-67
2022/08/24 04:37:08;;;;;;;;;;;;;;;-142.75;100.00;76432.50;5052902;28;19919;-66
2022/08/24 04:39:33;;;;;;;;;;;;;;;-142.75;100.00;76432.50;5053406;28;20102;-66
2022/08/24 04:41:58;;;;;;;;;;;;;;;-142.75;100.00;76436.44;5051840;28;19917;-66
2022/08/24 04:44:24;;;;;;;;;;;;;;;-142.75;100.00;76436.44;5053148;28;20370;-66
2022/08/24 04:46:49;;;;;;;;;;;;;;;-142.75;100.00;76428.56;5051552;28;20412;-66
2022/08/24 04:49:14;;;;;;;;;;;;;;;-142.75;100.00;76426.59;5053169;28;19919;-66
2022/08/24 04:51:39;;;;;;;;;;;;;;;-142.75;100.00;76424.63;5052937;28;19948;-66
2022/08/24 04:54:06;;;;;;;;;;;;;;;-142.75;100.00;76420.69;5053043;28;20439;-66
2022/08/24 04:56:31;;;;;;;;;;;;;;;-142.75;100.00;76420.69;5052834;28;19936;-66
2022/08/24 04:58:57;;;;;;;;;;;;;;;-142.75;100.00;76410.84;5052883;28;20378;-66
2022/08/24 05:01:24;;;;;;;;;;;;;;;-142.75;100.00;76410.84;5052816;28;19946;-66
2022/08/24 05:03:51;;;;;;;;;;;;;;;-142.75;100.00;76406.91;5052848;28;19924;-66
2022/08/24 05:06:17;;;;;;;;;;;;;;;-142.75;100.00;76399.03;5052685;28;19962;-66
2022/08/24 05:08:43;;;;;;;;;;;;;;;-142.75;100.00;76395.09;5051243;28;19913;-66
2022/08/24 05:11:08;;;;;;;;;;;;;;;-142.75;100.00;76401.00;5052667;28;20013;-66
2022/08/24 05:13:34;;;;;;;;;;;;;;;-142.75;100.00;76389.19;5052765;28;19913;-67
2022/08/24 05:15:59;;;;;;;;;;;;;;;-142.75;100.00;76389.19;5052659;28;19916;-66
2022/08/24 05:18:28;;;;;;;;;;;;;;;-142.75;100.00;76377.38;5050880;28;20279;-66
2022/08/24 05:20:54;;;;;;;;;;;;;;;-142.75;100.00;76369.50;5052457;28;19913;-66
2022/08/24 05:23:19;;;;;;;;;;;;;;;-142.75;100.00;76353.78;5052441;28;20287;-66
2022/08/24 05:25:44;;;;;;;;;;;;;;;-142.75;100.00;76349.81;5051047;28;19958;-66
2022/08/24 05:28:09;;;;;;;;;;;;;;;-142.75;100.00;76340.00;5051918;28;19920;-66
2022/08/24 05:30:35;;;;;;;;;;;;;;;-142.75;100.00;76330.16;5051077;28;19999;-66
2022/08/24 05:33:01;;;;;;;;;;;;;;;-142.75;100.00;76314.41;5051062;28;20303;-66
2022/08/24 05:35:26;;;;;;;;;;;;;;;-142.75;100.00;76302.59;5052194;28;19913;-66
2022/08/24 05:37:51;;;;;;;;;;;;;;;-142.75;100.00;76280.94;5052099;28;19917;-66
2022/08/24 05:40:17;;;;;;;;;;;;;;;-142.75;100.00;76263.22;5050894;28;19917;-66
2022/08/24 05:42:42;;;;;;;;;;;;;;;-142.75;100.00;76241.56;5052152;28;19913;-66
2022/08/24 05:45:09;;;;;;;;;;;;;;;-142.75;100.00;76219.91;5052197;28;20007;-66
2022/08/24 05:47:34;;;;;;;;;;;;;;;-142.75;100.00;76208.09;5051951;28;19960;-66
2022/08/24 05:50:00;;;;;;;;;;;;;;;-142.75;100.00;76188.44;5052079;28;19998;-66
2022/08/24 05:52:26;;;;;;;;;;;;;;;-142.75;100.00;76174.66;5052405;28;20297;-66
2022/08/24 05:54:52;;;;;;;;;;;;;;;-142.75;100.00;76172.69;5050716;28;19913;-66
2022/08/24 05:57:17;;;;;;;;;;;;;;;-142.75;100.00;76186.47;5050474;28;20001;-66
2022/08/24 05:59:42;;;;;;;;;;;;;;;-142.75;100.00;76178.59;5052045;28;19951;-66
2022/08/24 06:02:07;;;;;;;;;;;;;;;-142.75;100.00;76168.75;5051769;28;19917;-66
2022/08/24 06:04:33;;;;;;;;;;;;;;;-142.75;100.00;76168.75;5050468;28;20044;-66
2022/08/24 06:06:58;;;;;;;;;;;;;;;-142.75;100.00;76153.00;5051742;28;19943;-66
2022/08/24 06:09:23;;;;;;;;;;;;;;;-142.75;100.00;76127.41;5051921;28;19919;-66
2022/08/24 06:11:48;;;;;;;;;;;;;;;-142.75;100.00;76121.50;5051829;28;19912;-66
2022/08/24 06:14:15;;;;;;;;;;;;;;;-142.75;100.00;76117.56;5051555;28;20341;-66
2022/08/24 06:16:42;;;;;;;;;;;;;;;-142.75;100.00;76088.03;5050990;28;19919;-66
2022/08/24 06:19:09;;;;;;;;;;;;;;;-142.75;100.00;76066.41;5051370;28;19947;-67
2022/08/24 06:21:34;;;;;;;;;;;;;;;-142.75;100.00;76052.63;5051118;28;20352;-67
2022/08/24 06:24:00;;;;;;;;;;;;;;;-142.75;100.00;76029.00;5051181;28;19917;-66
2022/08/24 06:29:10;;;;;;;;;;;;;;;-142.75;100.00;75991.59;5050471;28;20008;-67
2022/08/24 06:31:36;;;;;;;;;;;;;;;-142.75;100.00;75983.72;5054234;28;20011;-67
2022/08/24 06:34:01;;;;;;;;;;;;;;;-142.75;100.00;75975.84;5054956;28;19927;-66
2022/08/24 06:36:27;;;;;;;;;;;;;;;-142.75;100.00;75956.19;5054206;28;19912;-66
2022/08/24 06:38:52;;;;;;;;;;;;;;;-142.75;100.00;75936.50;5055362;28;19913;-67
2022/08/24 06:41:17;;;;;;;;;;;;;;;-142.75;100.00;75922.72;5055424;28;19912;-67
2022/08/24 06:43:43;;;;;;;;;;;;;;;-142.75;100.00;75889.25;5055455;28;20389;-67
2022/08/24 06:46:08;;;;;;;;;;;;;;;-142.75;100.00;75869.56;5055354;28;19912;-67
2022/08/24 06:48:33;;;;;;;;;;;;;;;-142.75;100.00;75869.56;5055016;28;19913;-67
2022/08/24 06:50:59;;;;;;;;;;;;;;;-142.75;100.00;75845.97;5055259;28;20446;-67
2022/08/24 06:53:24;;;;;;;;;;;;;;;-142.75;100.00;75842.03;5055250;28;19912;-67
2022/08/24 06:55:54;;;;;;;;;;;;;;;-142.75;100.00;75818.41;5047668;28;19923;-67
2022/08/24 06:58:20;;;;;;;;;;;;;;;-142.75;100.00;75822.34;5054800;28;20054;-67
2022/08/24 07:03:28;;;;;;;;;;;;;;;-142.75;100.00;75794.78;5051424;28;19924;-65
2022/08/24 07:05:54;;;;;;;;;;;;;;;-142.75;100.00;75822.34;5053874;28;20461;-66
2022/08/24 07:08:20;;;;;;;;;;;;;;;-142.75;100.00;75810.53;5055639;28;19913;-66
2022/08/24 07:10:45;;;;;;;;;;;;;;;-142.75;100.00;75786.91;5043524;28;20280;-66
2022/08/24 07:13:11;;;;;;;;;;;;;;;-142.75;100.00;75781.00;5037367;28;20292;-66
2022/08/24 07:15:36;;;;;;;;;;;;;;;-142.75;100.00;75751.50;5035651;28;20015;-66
2022/08/24 07:18:02;;;;;;;;;;;;;;;-142.75;100.00;75743.63;5035001;28;20421;-66
2022/08/24 07:20:30;;;;;;;;;;;;;;;-142.75;100.00;75733.78;5035982;28;20020;-66
2022/08/24 07:22:55;;;;;;;;;;;;;;;-142.75;100.00;75735.75;5051157;28;19920;-67
2022/08/24 07:25:21;;;;;;;;;;;;;;;-142.75;100.00;75686.53;5030471;28;20297;-66
2022/08/24 07:27:46;;;;;;;;;;;;;;;-142.75;100.00;75664.91;5034924;28;19992;-66
2022/08/24 07:30:12;;;;;;;;;;;;;;;-142.75;100.00;75657.03;5035405;28;19913;-66
2022/08/24 07:32:37;;;;;;;;;;;;;;;-142.75;100.00;75633.41;5035091;28;19959;-66
2022/08/24 07:35:02;;;;;;;;;;;;;;;-142.75;100.00;75633.41;5034763;28;20286;-67
2022/08/24 07:37:27;;;;;;;;;;;;;;;-142.75;100.00;75625.53;5035338;28;19913;-66
2022/08/24 07:39:53;;;;;;;;;;;;;;;-142.75;100.00;75623.56;5036563;28;19920;-66
2022/08/24 07:42:18;;;;;;;;;;;;;;;-142.75;100.00;75603.88;5034287;28;20365;-66
2022/08/24 07:44:43;;;;;;;;;;;;;;;-142.75;100.00;75617.66;5034948;28;19917;-66
2022/08/24 07:47:09;;;;;;;;;;;;;;;-142.75;100.00;75633.41;5034476;28;20001;-66
2022/08/24 07:49:34;;;;;;;;;;;;;;;-142.75;100.00;75641.28;5035146;28;20549;-66
2022/08/24 07:51:59;;;;;;;;;;;;;;;-142.75;100.00;75613.72;5035124;28;19920;-67
2022/08/24 07:54:26;;;;;;;;;;;;;;;-142.75;100.00;75594.06;5029293;28;19917;-65
2022/08/24 07:56:51;;;;;;;;;;;;;;;-142.75;100.00;75605.84;5020839;28;20620;-65
2022/08/24 07:59:16;;;;;;;;;;;;;;;-142.75;100.00;75594.06;5020774;28;19922;-65
2022/08/24 08:01:42;;;;;;;;;;;;;;;-142.75;100.00;75590.13;5020142;28;19925;-65
2022/08/24 08:04:08;;;;;;;;;;;;;;;-142.75;100.00;75542.88;5034581;28;19917;-66
2022/08/24 08:06:33;;;;;;;;;;;;;;;-142.75;100.00;75509.44;5035471;28;20444;-66
2022/08/24 08:08:58;;;;;;;;;;;;;;;-142.75;100.00;75523.19;5034880;28;20291;-66
2022/08/24 08:11:24;;;;;;;;;;;;;;;-142.75;100.00;75483.84;5034521;28;19913;-67
2022/08/24 08:13:49;;;;;;;;;;;;;;;-142.75;100.00;75475.97;5034796;28;19913;-66
2022/08/24 08:16:14;;;;;;;;;;;;;;;-142.75;100.00;75460.22;5033683;28;20370;-66
2022/08/24 08:18:40;;;;;;;;;;;;;;;-142.75;100.00;75426.78;5033747;28;19917;-67
2022/08/24 08:24:13;;;;;;;;;;;;;;;-142.75;100.00;75416.94;5033248;28;19923;-67
2022/08/24 08:26:34;;;;;;;;;;;;;;;-142.75;100.00;75332.31;5033311;28;20413;-67
2022/08/24 08:29:01;;;;;;;;;;;;;;;-142.75;100.00;75326.41;5028264;28;19960;-66
2022/08/24 08:31:27;;;;;;;;;;;;;;;-142.75;100.00;75298.84;5041453;28;20260;-66
2022/08/24 08:33:52;;;;;;;;;;;;;;;-142.75;100.00;75328.38;5034422;28;20027;-67
2022/08/24 08:36:20;;;;;;;;;;;;;;;-142.75;100.00;75304.75;5035048;28;19913;-66
2022/08/24 08:38:45;;;;;;;;;;;;;;;-142.75;100.00;75287.06;5036143;28;19913;-65
2022/08/24 08:41:16;;;;;;;;;;;;;;;-142.75;100.00;75233.91;5035225;28;19917;-67
2022/08/24 08:43:45;;;;;;;;;;;;;;;-142.75;100.00;75253.59;5035164;28;19925;-67
2022/08/24 08:46:10;;;;;;;;;;;;;;;-142.75;100.00;75251.63;5033988;28;19913;-67
2022/08/24 08:48:55;;;;;;;;;;;;;;;-142.75;100.00;75265.41;5033706;28;19982;-66
2022/08/24 08:51:23;;;;;;;;;;;;;;;-142.75;100.00;75231.94;5033168;28;19914;-67
2022/08/24 08:53:57;;;;;;;;;;;;;;;-142.75;100.00;75216.22;5033062;28;19940;-67
2022/08/24 08:56:51;;;;;;;;;;;;;;;-142.75;100.00;75186.69;5033447;28;19913;-66
2022/08/24 08:59:20;;;;;;;;;;;;;;;-142.75;100.00;75188.66;5033581;28;19913;-66
2022/08/24 09:02:13;;;;;;;;;;;;;;;-142.75;100.00;75165.03;5033527;28;19979;-67
2022/08/24 09:04:50;;;;;;;;;;;;;;;-142.75;100.00;75176.84;5033539;28;20474;-67
2022/08/24 09:07:19;;;;;;;;;;;;;;;-142.75;100.00;75188.66;5033432;28;20024;-66
2022/08/24 09:09:51;;;;;;;;;;;;;;;-142.75;100.00;75178.81;5032344;28;19957;-67
2022/08/24 09:12:26;;;;;;;;;;;;;;;-142.75;100.00;75204.41;5033296;28;19917;-67
2022/08/24 09:14:57;;;;;;;;;;;;;;;-142.75;100.00;75172.91;5034012;28;20135;-67
2022/08/24 09:17:30;;;;;;;;;;;;;;;-142.75;100.00;75172.91;5048949;28;20003;-67
2022/08/24 09:19:55;;;;;;;;;;;;;;;-142.75;100.00;75194.56;5033561;28;19925;-66
2022/08/24 09:22:21;;;;;;;;;;;;;;;-142.75;100.00;75119.78;5048736;28;20375;-66
2022/08/24 09:25:08;;;;;;;;;;;;;;;-142.75;100.00;75094.22;5033035;28;19965;-67
2022/08/24 09:27:53;;;;;;;;;;;;;;;-142.75;100.00;75058.78;5032093;28;19914;-67
2022/08/24 09:30:22;;;;;;;;;;;;;;;-142.75;97.93;75052.88;5049118;28;19967;-66
2022/08/24 09:32:50;;;;;;;;;;;;;;;-142.75;98.32;75050.91;5033512;28;19968;-67
2022/08/24 09:35:23;;;;;;;;;;;;;;;-142.75;97.13;75050.91;5033521;28;20442;-67
2022/08/24 09:37:48;;;;;;;;;;;;;;;-142.75;98.82;75033.22;5033165;28;19913;-67
2022/08/24 09:40:40;;;;;;;;;;;;;;;-142.75;96.99;74976.16;5033242;28;19913;-67
2022/08/24 09:43:05;;;;;;;;;;;;;;;-142.75;91.04;74985.97;5032120;28;19913;-67
2022/08/24 09:45:55;;;;;;;;;;;;;;;-142.75;95.82;75007.63;5033219;28;19917;-67
2022/08/24 09:48:36;;;;;;;;;;;;;;;-142.75;87.47;74970.25;5031930;28;19920;-67
2022/08/24 09:51:04;;;;;;;;;;;;;;;-142.75;84.73;74984.00;5035938;28;19917;-67
2022/08/24 09:53:40;;;;;;;;;;;;;;;-142.75;85.90;75013.53;5047621;28;19917;-67
2022/08/24 09:56:25;;;;;;;;;;;;;;;-142.75;85.48;74997.78;5030848;28;19920;-67
2022/08/24 09:59:08;;;;;;;;;;;;;;;-142.75;85.53;75017.47;5047326;28;19996;-67
2022/08/24 10:01:56;;;;;;;;;;;;;;;-142.75;84.06;75035.19;5032004;28;20331;-67
2022/08/24 10:04:39;;;;;;;;;;;;;;;-142.75;91.76;75133.56;5031961;28;19921;-67
2022/08/24 10:07:37;;;;;;;;;;;;;;;-142.75;88.79;75121.75;5036005;28;19914;-67
2022/08/24 10:10:21;;;;;;;;;;;;;;;-142.75;94.00;75161.13;5023945;28;19913;-67
2022/08/24 10:13:03;;;;;;;;;;;;;;;-142.75;97.58;75168.97;5056255;28;19913;-67
2022/08/24 10:15:45;;;;;;;;;;;;;;;-142.75;99.42;75214.25;5051522;28;19913;-67
2022/08/24 10:18:16;;;;;;;;;;;;;;;-142.75;100.00;75253.59;5035814;28;19936;-67
2022/08/24 10:20:57;;;;;;;;;;;;;;;-142.75;99.83;75259.50;5036041;28;20025;-67
2022/08/24 10:23:40;;;;;;;;;;;;;;;-142.75;98.86;75267.38;5035635;28;19971;-67
2022/08/24 10:26:08;;;;;;;;;;;;;;;-142.75;100.00;75310.66;5035949;28;19921;-67
2022/08/24 10:28:53;;;;;;;;;;;;;;;-142.75;100.00;75350.03;5050979;28;20083;-67
2022/08/24 10:31:24;;;;;;;;;;;;;;;-142.75;100.00;75322.47;5035727;28;20534;-67
2022/08/24 10:34:12;;;;;;;;;;;;;;;-142.75;100.00;75330.34;5035828;28;19963;-67
2022/08/24 10:36:51;;;;;;;;;;;;;;;-142.75;96.44;75352.00;5025020;28;19913;-67
2022/08/24 10:42:03;;;;;;;;;;;;;;;-142.75;97.98;75353.97;5035544;28;19966;-67
2022/08/24 10:44:46;;;;;;;;;;;;;;;-142.75;100.00;75334.28;5035415;28;19970;-67
2022/08/24 10:47:12;;;;;;;;;;;;;;;-142.75;100.00;75338.22;5035072;28;19917;-67
2022/08/24 10:50:00;;;;;;;;;;;;;;;-142.75;96.38;75330.34;5035575;28;20390;-67
2022/08/24 10:52:47;;;;;;;;;;;;;;;-142.75;100.00;75277.22;5035332;28;20022;-67
2022/08/24 10:55:14;;;;;;;;;;;;;;;-142.75;94.24;75174.88;5050794;28;19913;-67
2022/08/24 10:57:47;;;;;;;;;;;;;;;-142.75;86.75;75066.66;5050388;28;20473;-67
2022/08/24 11:00:15;;;;;;;;;;;;;;;-142.75;82.36;74964.34;5035346;28;19913;-67
2022/08/24 11:02:42;;;;;;;;;;;;;;;-142.75;74.38;74913.19;5034911;28;19985;-67
2022/08/24 11:05:07;;;;;;;;;;;;;;;-142.75;74.47;74865.97;5033816;28;20379;-68
2022/08/24 11:07:33;;;;;;;;;;;;;;;-142.75;70.76;74842.34;5034862;28;19913;-67
2022/08/24 11:10:00;;;;;;;;;;;;;;;-142.75;68.99;74781.34;5034981;28;19920;-67
2022/08/24 11:12:36;;;;;;;;;;;;;;;-142.75;67.93;74775.44;5033716;28;20032;-67
2022/08/24 11:15:22;;;;;;;;;;;;;;;-142.75;66.88;74747.91;5035024;28;19924;-67
2022/08/24 11:17:56;;;;;;;;;;;;;;;-142.75;66.48;74832.50;5034473;28;19947;-68
2022/08/24 11:20:26;;;;;;;;;;;;;;;-142.75;68.09;74763.63;5034980;28;19951;-67
2022/08/24 11:23:08;;;;;;;;;;;;;;;-142.75;69.21;74793.16;5034699;28;19917;-67
2022/08/24 11:25:36;;;;;;;;;;;;;;;-142.75;67.37;74763.63;5034745;28;19921;-67
2022/08/24 11:28:04;;;;;;;;;;;;;;;-142.75;65.58;74698.72;5034281;28;19920;-67
2022/08/24 11:30:30;;;;;;;;;;;;;;;-142.75;63.67;74694.78;5034618;28;19917;-67
2022/08/24 11:33:03;;;;;;;;;;;;;;;-142.75;65.35;74781.34;5033178;28;20371;-67
2022/08/24 11:35:35;;;;;;;;;;;;;;;-142.75;65.62;74751.84;5033206;28;19913;-67
2022/08/24 11:38:03;;;;;;;;;;;;;;;-142.75;65.37;74761.66;5034136;28;19996;-67
2022/08/24 11:40:29;;;;;;;;;;;;;;;-142.75;65.12;74755.78;5034495;28;19921;-67
2022/08/24 11:43:01;;;;;;;;;;;;;;;-142.75;66.19;74814.78;5033174;28;19921;-67
2022/08/24 11:45:27;;;;;;;;;;;;;;;-142.75;65.14;74848.25;5034433;28;19916;-67
2022/08/24 11:48:02;;;;;;;;;;;;;;;-142.75;64.20;74724.28;5034091;28;19913;-67
2022/08/24 11:50:45;;;;;;;;;;;;;;;-142.75;63.76;74694.78;5034365;28;19913;-69
2022/08/24 11:53:32;;;;;;;;;;;;;;;-142.75;63.08;74657.38;5034257;28;19913;-67
2022/08/24 11:55:57;;;;;;;;;;;;;;;-142.75;62.03;74667.22;5034319;28;20402;-67
2022/08/24 11:58:33;;;;;;;;;;;;;;;-142.75;62.40;74708.53;5033900;28;19952;-67
2022/08/24 12:01:03;;;;;;;;;;;;;;;-142.75;65.09;74814.78;5034036;28;19996;-67
2022/08/24 12:03:31;;;;;;;;;;;;;;;-142.75;66.45;74877.75;5033882;28;19928;-67
2022/08/24 12:06:07;;;;;;;;;;;;;;;-142.75;68.03;74901.38;5049347;28;19955;-68
2022/08/24 12:08:56;;;;;;;;;;;;;;;-142.75;68.63;74913.19;5032540;28;19913;-67
2022/08/24 12:11:32;;;;;;;;;;;;;;;-142.75;67.90;74873.81;5030539;28;20326;-68
2022/08/24 12:14:04;;;;;;;;;;;;;;;-142.75;67.77;74895.47;5033924;28;20390;-68
2022/08/24 12:16:34;;;;;;;;;;;;;;;-142.75;70.16;74930.88;5033773;28;19913;-67
2022/08/24 12:19:04;;;;;;;;;;;;;;;-142.75;70.83;74964.34;5032494;28;19963;-67
2022/08/24 12:21:32;;;;;;;;;;;;;;;-142.75;71.23;74984.00;5033672;28;20004;-67
2022/08/24 12:23:59;;;;;;;;;;;;;;;-142.75;72.85;74987.94;5033597;28;19917;-67
2022/08/24 12:26:27;;;;;;;;;;;;;;;-142.75;72.39;75017.47;5033546;28;19917;-67
2022/08/24 12:28:55;;;;;;;;;;;;;;;-142.75;73.84;75015.50;5032743;28;20011;-67
2022/08/24 12:31:24;;;;;;;;;;;;;;;-142.75;76.32;75050.91;5033430;28;20103;-67
2022/08/24 12:33:53;;;;;;;;;;;;;;;-142.75;80.77;75109.94;5033484;28;19959;-67
2022/08/24 12:36:29;;;;;;;;;;;;;;;-142.75;78.09;75119.78;5033386;28;20553;-67
2022/08/24 12:39:14;;;;;;;;;;;;;;;-142.75;81.29;75133.56;5033281;28;19917;-67
2022/08/24 12:42:01;;;;;;;;;;;;;;;-142.75;79.21;75153.25;5032934;28;19913;-67